createdAt,value
2023-02-17T00:00:25.877Z,32.35
2023-02-17T00:00:55.955Z,32.34
2023-02-17T00:01:26.093Z,32.31
2023-02-17T00:01:56.034Z,32.34
2023-02-17T00:02:26.141Z,32.32
2023-02-17T00:02:56.212Z,32.35
2023-02-17T00:03:26.312Z,32.26
2023-02-17T00:03:56.502Z,32.35
2023-02-17T00:04:26.477Z,32.35
2023-02-17T00:04:56.566Z,32.34
2023-02-17T00:05:26.645Z,32.31
2023-02-17T00:05:56.742Z,32.29
2023-02-17T00:06:26.830Z,32.26
2023-02-17T00:06:56.906Z,32.24
2023-02-17T00:07:26.995Z,32.28
2023-02-17T00:07:57.066Z,32.28
2023-02-17T00:08:27.152Z,32.29
2023-02-17T00:08:57.234Z,32.26
2023-02-17T00:09:27.319Z,32.30
2023-02-17T00:09:57.400Z,32.33
2023-02-17T00:10:27.481Z,32.34
2023-02-17T00:10:57.573Z,32.37
2023-02-17T00:11:27.652Z,32.38
2023-02-17T00:11:57.737Z,32.37
2023-02-17T00:12:27.815Z,32.35
2023-02-17T00:12:57.898Z,32.35
2023-02-17T00:13:27.983Z,32.38
2023-02-17T00:13:58.062Z,32.37
2023-02-17T00:14:28.147Z,32.35
2023-02-17T00:14:58.233Z,32.37
2023-02-17T00:15:28.318Z,32.30
2023-02-17T00:15:58.406Z,32.35
2023-02-17T00:16:28.483Z,32.30
2023-02-17T00:16:58.574Z,32.35
2023-02-17T00:17:28.664Z,32.32
2023-02-17T00:17:58.742Z,32.41
2023-02-17T00:18:28.819Z,32.38
2023-02-17T00:18:58.918Z,32.38
2023-02-17T00:19:29.000Z,32.43
2023-02-17T00:19:59.085Z,32.37
2023-02-17T00:20:29.169Z,32.42
2023-02-17T00:20:59.271Z,32.46
2023-02-17T00:21:29.348Z,32.51
2023-02-17T00:21:59.425Z,32.48
2023-02-17T00:22:29.509Z,32.45
2023-02-17T00:22:59.593Z,32.46
2023-02-17T00:23:29.670Z,32.51
2023-02-17T00:23:59.760Z,32.52
2023-02-17T00:24:29.844Z,32.51
2023-02-17T00:24:59.925Z,32.53
2023-02-17T00:25:29.995Z,32.58
2023-02-17T00:26:00.107Z,32.60
2023-02-17T00:26:30.174Z,32.53
2023-02-17T00:27:00.275Z,32.52
2023-02-17T00:27:30.344Z,32.57
2023-02-17T00:28:00.427Z,32.58
2023-02-17T00:28:30.518Z,32.59
2023-02-17T00:29:00.622Z,32.58
2023-02-17T00:29:30.693Z,32.60
2023-02-17T00:30:00.812Z,32.57
2023-02-17T00:30:30.829Z,32.53
2023-02-17T00:31:00.906Z,32.57
2023-02-17T00:31:30.989Z,32.52
2023-02-17T00:32:01.095Z,32.52
2023-02-17T00:32:30.995Z,32.51
2023-02-17T00:33:01.094Z,32.52
2023-02-17T00:33:31.179Z,32.52
2023-02-17T00:34:01.259Z,32.55
2023-02-17T00:34:31.342Z,32.54
2023-02-17T00:35:01.424Z,32.55
2023-02-17T00:35:31.416Z,32.56
2023-02-17T00:36:01.521Z,32.52
2023-02-17T00:36:31.580Z,32.51
2023-02-17T00:37:01.664Z,32.51
2023-02-17T00:37:31.753Z,32.54
2023-02-17T00:38:01.837Z,32.51
2023-02-17T00:38:31.921Z,32.54
2023-02-17T00:39:02.002Z,32.49
2023-02-17T00:39:32.080Z,32.52
2023-02-17T00:40:02.171Z,32.48
2023-02-17T00:40:32.265Z,32.46
2023-02-17T00:41:02.363Z,32.44
2023-02-17T00:41:32.425Z,32.43
2023-02-17T00:42:02.513Z,32.34
2023-02-17T00:42:32.601Z,32.29
2023-02-17T00:43:02.695Z,32.35
2023-02-17T00:43:32.785Z,32.34
2023-02-17T00:44:02.916Z,32.30
2023-02-17T00:44:32.885Z,32.26
2023-02-17T00:45:02.955Z,32.26
2023-02-17T00:45:33.004Z,32.25
2023-02-17T00:46:03.217Z,32.34
2023-02-17T00:46:33.104Z,32.31
2023-02-17T00:47:03.160Z,32.24
2023-02-17T00:47:33.201Z,32.32
2023-02-17T00:48:03.247Z,32.29
2023-02-17T00:48:33.348Z,32.37
2023-02-17T00:49:03.430Z,32.29
2023-02-17T00:49:33.471Z,32.29
2023-02-17T00:50:03.520Z,32.24
2023-02-17T00:50:33.554Z,32.25
2023-02-17T00:51:03.609Z,32.28
2023-02-17T00:51:33.653Z,32.28
2023-02-17T00:52:03.702Z,32.26
2023-02-17T00:52:33.742Z,32.29
2023-02-17T00:53:03.772Z,32.26
2023-02-17T00:53:33.821Z,32.26
2023-02-17T00:54:03.893Z,32.26
2023-02-17T00:54:33.924Z,32.26
2023-02-17T00:55:03.991Z,32.24
2023-02-17T00:55:34.070Z,32.26
2023-02-17T00:56:04.408Z,32.24
2023-02-17T00:56:34.226Z,32.24
2023-02-17T00:57:04.393Z,32.24
2023-02-17T00:57:34.378Z,32.26
2023-02-17T00:58:04.442Z,32.22
2023-02-17T00:58:34.522Z,32.25
2023-02-17T00:59:04.618Z,32.25
2023-02-17T00:59:34.694Z,32.17
2023-02-17T01:00:04.774Z,32.24
2023-02-17T01:00:34.849Z,32.21
2023-02-17T01:01:04.941Z,32.21
2023-02-17T01:01:35.083Z,32.21
2023-02-17T01:02:05.043Z,32.17
2023-02-17T01:02:35.126Z,32.21
2023-02-17T01:03:05.205Z,32.15
2023-02-17T01:03:35.295Z,32.19
2023-02-17T01:04:05.419Z,32.15
2023-02-17T01:04:35.510Z,32.13
2023-02-17T01:05:05.758Z,32.22
2023-02-17T01:05:35.631Z,32.19
2023-02-17T01:06:06.047Z,32.10
2023-02-17T01:06:35.805Z,32.13
2023-02-17T01:07:05.900Z,32.11
2023-02-17T01:07:35.974Z,32.16
2023-02-17T01:08:06.059Z,32.17
2023-02-17T01:08:36.164Z,32.19
2023-02-17T01:09:06.238Z,32.23
2023-02-17T01:09:36.314Z,32.26
2023-02-17T01:10:06.403Z,32.30
2023-02-17T01:10:36.498Z,32.30
2023-02-17T01:11:06.579Z,32.33
2023-02-17T01:11:36.666Z,32.35
2023-02-17T01:12:06.780Z,32.41
2023-02-17T01:12:36.732Z,32.39
2023-02-17T01:13:06.819Z,32.41
2023-02-17T01:13:36.906Z,32.45
2023-02-17T01:14:06.989Z,32.43
2023-02-17T01:14:37.063Z,32.42
2023-02-17T01:15:07.145Z,32.45
2023-02-17T01:15:37.233Z,32.41
2023-02-17T01:16:07.724Z,32.39
2023-02-17T01:16:37.328Z,32.44
2023-02-17T01:17:07.433Z,32.42
2023-02-17T01:17:37.517Z,32.43
2023-02-17T01:18:07.614Z,32.37
2023-02-17T01:18:37.712Z,32.43
2023-02-17T01:19:07.793Z,32.41
2023-02-17T01:19:37.878Z,32.42
2023-02-17T01:20:07.967Z,32.47
2023-02-17T01:20:38.042Z,32.46
2023-02-17T01:21:08.124Z,32.52
2023-02-17T01:21:38.231Z,32.49
2023-02-17T01:22:08.308Z,32.51
2023-02-17T01:22:38.384Z,32.54
2023-02-17T01:23:08.466Z,32.51
2023-02-17T01:23:38.547Z,32.46
2023-02-17T01:24:08.639Z,32.50
2023-02-17T01:24:38.717Z,32.46
2023-02-17T01:25:08.802Z,32.51
2023-02-17T01:25:38.798Z,32.49
2023-02-17T01:26:08.846Z,32.49
2023-02-17T01:26:38.950Z,32.48
2023-02-17T01:27:09.091Z,32.52
2023-02-17T01:27:39.144Z,32.48
2023-02-17T01:28:09.229Z,32.48
2023-02-17T01:28:39.314Z,32.47
2023-02-17T01:29:09.417Z,32.47
2023-02-17T01:29:39.483Z,32.41
2023-02-17T01:30:09.625Z,32.39
2023-02-17T01:30:39.565Z,32.43
2023-02-17T01:31:09.759Z,32.41
2023-02-17T01:31:39.881Z,32.41
2023-02-17T01:32:09.752Z,32.38
2023-02-17T01:32:39.836Z,32.34
2023-02-17T01:33:09.937Z,32.31
2023-02-17T01:33:40.015Z,32.35
2023-02-17T01:34:10.115Z,32.35
2023-02-17T01:34:40.195Z,32.34
2023-02-17T01:35:10.280Z,32.32
2023-02-17T01:35:40.376Z,32.32
2023-02-17T01:36:10.457Z,32.35
2023-02-17T01:36:40.545Z,32.32
2023-02-17T01:37:10.621Z,32.32
2023-02-17T01:37:40.706Z,32.32
2023-02-17T01:38:10.797Z,32.32
2023-02-17T01:38:40.877Z,32.29
2023-02-17T01:39:10.959Z,32.32
2023-02-17T01:39:41.046Z,32.35
2023-02-17T01:40:11.131Z,32.30
2023-02-17T01:40:41.216Z,32.29
2023-02-17T01:41:11.289Z,32.28
2023-02-17T01:41:41.367Z,32.26
2023-02-17T01:42:11.489Z,32.18
2023-02-17T01:42:41.466Z,32.22
2023-02-17T01:43:11.559Z,32.18
2023-02-17T01:43:41.636Z,32.16
2023-02-17T01:44:11.731Z,32.13
2023-02-17T01:44:41.816Z,32.13
2023-02-17T01:45:11.876Z,32.15
2023-02-17T01:45:41.910Z,32.13
2023-02-17T01:46:12.041Z,32.13
2023-02-17T01:46:42.020Z,32.14
2023-02-17T01:47:12.062Z,32.06
2023-02-17T01:47:42.109Z,32.13
2023-02-17T01:48:12.147Z,32.12
2023-02-17T01:48:42.191Z,32.09
2023-02-17T01:49:12.254Z,32.12
2023-02-17T01:49:42.272Z,32.10
2023-02-17T01:50:12.333Z,32.07
2023-02-17T01:50:42.358Z,32.10
2023-02-17T01:51:12.389Z,32.07
2023-02-17T01:51:42.444Z,32.07
2023-02-17T01:52:12.495Z,32.15
2023-02-17T01:52:42.533Z,32.11
2023-02-17T01:53:12.563Z,32.15
2023-02-17T01:53:42.616Z,32.19
2023-02-17T01:54:12.648Z,32.11
2023-02-17T01:54:42.706Z,32.17
2023-02-17T01:55:12.764Z,32.20
2023-02-17T01:55:42.854Z,32.21
2023-02-17T01:56:12.946Z,32.19
2023-02-17T01:56:42.940Z,32.25
2023-02-17T01:57:13.051Z,32.22
2023-02-17T01:57:43.014Z,32.19
2023-02-17T01:58:13.095Z,32.24
2023-02-17T01:58:43.177Z,32.27
2023-02-17T01:59:13.267Z,32.26
2023-02-17T01:59:43.352Z,32.26
2023-02-17T02:00:13.434Z,32.23
2023-02-17T02:00:43.518Z,32.20
2023-02-17T02:01:13.602Z,32.20
2023-02-17T02:01:43.812Z,32.26
2023-02-17T02:02:13.884Z,32.29
2023-02-17T02:02:44.061Z,32.24
2023-02-17T02:03:13.933Z,32.27
2023-02-17T02:03:44.015Z,32.23
2023-02-17T02:04:14.115Z,32.29
2023-02-17T02:04:44.194Z,32.29
2023-02-17T02:05:14.274Z,32.33
2023-02-17T02:05:44.355Z,32.35
2023-02-17T02:06:14.440Z,32.27
2023-02-17T02:06:44.549Z,32.32
2023-02-17T02:07:14.628Z,32.30
2023-02-17T02:07:44.696Z,32.32
2023-02-17T02:08:14.801Z,32.38
2023-02-17T02:08:44.871Z,32.38
2023-02-17T02:09:14.951Z,32.34
2023-02-17T02:09:45.033Z,32.42
2023-02-17T02:10:15.147Z,32.45
2023-02-17T02:10:45.209Z,32.40
2023-02-17T02:11:15.296Z,32.45
2023-02-17T02:11:45.383Z,32.47
2023-02-17T02:12:15.498Z,32.52
2023-02-17T02:12:45.464Z,32.52
2023-02-17T02:13:15.557Z,32.57
2023-02-17T02:13:45.653Z,32.57
2023-02-17T02:14:15.734Z,32.52
2023-02-17T02:14:45.813Z,32.55
2023-02-17T02:15:15.905Z,32.53
2023-02-17T02:15:45.991Z,32.58
2023-02-17T02:16:16.126Z,32.59
2023-02-17T02:16:46.132Z,32.55
2023-02-17T02:17:16.098Z,32.53
2023-02-17T02:17:46.185Z,32.46
2023-02-17T02:18:16.267Z,32.48
2023-02-17T02:18:46.347Z,32.52
2023-02-17T02:19:16.434Z,32.49
2023-02-17T02:19:46.518Z,32.46
2023-02-17T02:20:16.606Z,32.48
2023-02-17T02:20:46.691Z,32.43
2023-02-17T02:21:16.771Z,32.43
2023-02-17T02:21:46.886Z,32.45
2023-02-17T02:22:16.949Z,32.39
2023-02-17T02:22:47.019Z,32.36
2023-02-17T02:23:17.098Z,32.33
2023-02-17T02:23:47.194Z,32.35
2023-02-17T02:24:17.283Z,32.32
2023-02-17T02:24:47.366Z,32.40
2023-02-17T02:25:17.444Z,32.35
2023-02-17T02:25:47.530Z,32.32
2023-02-17T02:26:17.618Z,32.37
2023-02-17T02:26:47.696Z,32.29
2023-02-17T02:27:17.785Z,32.30
2023-02-17T02:27:47.873Z,32.32
2023-02-17T02:28:17.953Z,32.33
2023-02-17T02:28:48.049Z,32.33
2023-02-17T02:29:18.131Z,32.36
2023-02-17T02:29:48.221Z,32.40
2023-02-17T02:30:18.371Z,32.35
2023-02-17T02:30:48.359Z,32.36
2023-02-17T02:31:18.504Z,32.30
2023-02-17T02:31:48.500Z,32.34
2023-02-17T02:32:18.534Z,32.27
2023-02-17T02:32:48.626Z,32.24
2023-02-17T02:33:18.704Z,32.22
2023-02-17T02:33:48.778Z,32.22
2023-02-17T02:34:18.865Z,32.19
2023-02-17T02:34:48.954Z,32.18
2023-02-17T02:35:19.037Z,32.18
2023-02-17T02:35:49.128Z,32.11
2023-02-17T02:36:19.225Z,32.19
2023-02-17T02:36:49.346Z,32.12
2023-02-17T02:37:19.395Z,32.10
2023-02-17T02:37:49.476Z,32.07
2023-02-17T02:38:19.564Z,32.08
2023-02-17T02:38:49.659Z,32.07
2023-02-17T02:39:19.656Z,32.13
2023-02-17T02:39:49.730Z,32.04
2023-02-17T02:40:19.818Z,32.10
2023-02-17T02:40:49.899Z,32.13
2023-02-17T02:41:19.995Z,32.12
2023-02-17T02:41:50.131Z,32.07
2023-02-17T02:42:20.078Z,32.13
2023-02-17T02:42:50.164Z,32.17
2023-02-17T02:43:20.269Z,32.18
2023-02-17T02:43:50.346Z,32.17
2023-02-17T02:44:20.449Z,32.16
2023-02-17T02:44:50.529Z,32.24
2023-02-17T02:45:20.567Z,32.22
2023-02-17T02:45:50.694Z,32.24
2023-02-17T02:46:20.723Z,32.20
2023-02-17T02:46:50.766Z,32.24
2023-02-17T02:47:20.801Z,32.24
2023-02-17T02:47:50.873Z,32.26
2023-02-17T02:48:20.879Z,32.23
2023-02-17T02:48:50.921Z,32.23
2023-02-17T02:49:20.959Z,32.23
2023-02-17T02:49:50.994Z,32.17
2023-02-17T02:50:21.037Z,32.22
2023-02-17T02:50:51.087Z,32.19
2023-02-17T02:51:21.123Z,32.19
2023-02-17T02:51:51.143Z,32.13
2023-02-17T02:52:21.208Z,32.14
2023-02-17T02:52:51.229Z,32.14
2023-02-17T02:53:21.281Z,32.16
2023-02-17T02:53:51.309Z,32.13
2023-02-17T02:54:21.335Z,32.13
2023-02-17T02:54:51.384Z,32.13
2023-02-17T02:55:21.478Z,32.13
2023-02-17T02:55:51.584Z,32.10
2023-02-17T02:56:21.667Z,32.13
2023-02-17T02:56:51.751Z,32.13
2023-02-17T02:57:21.845Z,32.13
2023-02-17T02:57:51.927Z,32.14
2023-02-17T02:58:22.020Z,32.20
2023-02-17T02:58:52.098Z,32.23
2023-02-17T02:59:22.194Z,32.21
2023-02-17T02:59:52.283Z,32.26
2023-02-17T03:00:22.373Z,32.27
2023-02-17T03:00:52.466Z,32.28
2023-02-17T03:01:22.598Z,32.35
2023-02-17T03:01:52.538Z,32.35
2023-02-17T03:02:22.629Z,32.34
2023-02-17T03:02:52.708Z,32.41
2023-02-17T03:03:22.785Z,32.43
2023-02-17T03:03:52.883Z,32.43
2023-02-17T03:04:22.954Z,32.42
2023-02-17T03:04:53.035Z,32.46
2023-02-17T03:05:23.126Z,32.46
2023-02-17T03:05:53.206Z,32.45
2023-02-17T03:06:23.289Z,32.48
2023-02-17T03:06:53.381Z,32.43
2023-02-17T03:07:23.492Z,32.46
2023-02-17T03:07:53.564Z,32.45
2023-02-17T03:08:23.558Z,32.39
2023-02-17T03:08:53.651Z,32.46
2023-02-17T03:09:23.733Z,32.46
2023-02-17T03:09:53.826Z,32.49
2023-02-17T03:10:23.901Z,32.49
2023-02-17T03:10:53.997Z,32.47
2023-02-17T03:11:24.080Z,32.55
2023-02-17T03:11:54.163Z,32.57
2023-02-17T03:12:24.236Z,32.59
2023-02-17T03:12:54.318Z,32.55
2023-02-17T03:13:24.418Z,32.59
2023-02-17T03:13:54.507Z,32.55
2023-02-17T03:14:24.589Z,32.58
2023-02-17T03:14:54.670Z,32.59
2023-02-17T03:15:24.672Z,32.55
2023-02-17T03:15:54.761Z,32.52
2023-02-17T03:16:24.867Z,32.54
2023-02-17T03:16:54.937Z,32.52
2023-02-17T03:17:25.023Z,32.48
2023-02-17T03:17:55.111Z,32.49
2023-02-17T03:18:25.196Z,32.52
2023-02-17T03:18:55.286Z,32.51
2023-02-17T03:19:25.372Z,32.42
2023-02-17T03:19:55.458Z,32.42
2023-02-17T03:20:25.545Z,32.39
2023-02-17T03:20:55.633Z,32.38
2023-02-17T03:21:25.709Z,32.42
2023-02-17T03:21:55.790Z,32.36
2023-02-17T03:22:25.872Z,32.35
2023-02-17T03:22:55.974Z,32.33
2023-02-17T03:23:26.031Z,32.34
2023-02-17T03:23:56.113Z,32.29
2023-02-17T03:24:26.200Z,32.27
2023-02-17T03:24:56.285Z,32.32
2023-02-17T03:25:26.376Z,32.34
2023-02-17T03:25:56.453Z,32.26
2023-02-17T03:26:26.535Z,32.29
2023-02-17T03:26:56.616Z,32.29
2023-02-17T03:27:26.712Z,32.32
2023-02-17T03:27:56.790Z,32.26
2023-02-17T03:28:26.873Z,32.26
2023-02-17T03:28:56.955Z,32.23
2023-02-17T03:29:27.045Z,32.26
2023-02-17T03:29:57.174Z,32.22
2023-02-17T03:30:27.176Z,32.32
2023-02-17T03:30:57.227Z,32.24
2023-02-17T03:31:29.709Z,32.16
2023-02-17T03:31:57.485Z,32.15
2023-02-17T03:32:27.395Z,32.11
2023-02-17T03:32:57.484Z,32.10
2023-02-17T03:33:27.568Z,32.10
2023-02-17T03:33:57.649Z,32.09
2023-02-17T03:34:27.765Z,32.09
2023-02-17T03:34:57.829Z,32.06
2023-02-17T03:35:27.916Z,32.04
2023-02-17T03:35:58.001Z,32.03
2023-02-17T03:36:28.071Z,32.04
2023-02-17T03:36:58.160Z,32.11
2023-02-17T03:37:28.251Z,32.07
2023-02-17T03:37:58.342Z,32.09
2023-02-17T03:38:28.355Z,32.11
2023-02-17T03:38:58.419Z,32.10
2023-02-17T03:39:28.551Z,32.10
2023-02-17T03:39:58.620Z,32.10
2023-02-17T03:40:28.708Z,32.11
2023-02-17T03:40:58.788Z,32.10
2023-02-17T03:41:28.871Z,32.07
2023-02-17T03:41:58.895Z,32.11
2023-02-17T03:42:28.989Z,32.11
2023-02-17T03:42:59.074Z,32.11
2023-02-17T03:43:29.167Z,32.10
2023-02-17T03:43:59.234Z,32.12
2023-02-17T03:44:29.332Z,32.12
2023-02-17T03:44:59.411Z,32.06
2023-02-17T03:45:29.392Z,32.07
2023-02-17T03:45:59.506Z,32.05
2023-02-17T03:46:29.530Z,32.10
2023-02-17T03:46:59.585Z,32.07
2023-02-17T03:47:29.620Z,32.11
2023-02-17T03:47:59.650Z,32.10
2023-02-17T03:48:29.710Z,32.11
2023-02-17T03:48:59.747Z,32.10
2023-02-17T03:49:29.847Z,32.11
2023-02-17T03:49:59.880Z,32.11
2023-02-17T03:50:29.901Z,32.13
2023-02-17T03:50:59.950Z,32.16
2023-02-17T03:51:29.993Z,32.21
2023-02-17T03:52:00.061Z,32.20
2023-02-17T03:52:30.107Z,32.21
2023-02-17T03:53:00.146Z,32.21
2023-02-17T03:53:30.200Z,32.23
2023-02-17T03:54:00.260Z,32.23
2023-02-17T03:54:30.272Z,32.20
2023-02-17T03:55:00.332Z,32.26
2023-02-17T03:55:30.409Z,32.23
2023-02-17T03:56:00.510Z,32.33
2023-02-17T03:56:30.577Z,32.30
2023-02-17T03:57:00.701Z,32.30
2023-02-17T03:57:30.751Z,32.37
2023-02-17T03:58:00.830Z,32.35
2023-02-17T03:58:30.918Z,32.40
2023-02-17T03:59:00.994Z,32.36
2023-02-17T03:59:31.095Z,32.43
2023-02-17T04:00:01.174Z,32.40
2023-02-17T04:00:31.260Z,32.40
2023-02-17T04:01:01.399Z,32.48
2023-02-17T04:01:31.385Z,32.42
2023-02-17T04:02:01.344Z,32.46
2023-02-17T04:02:31.431Z,32.49
2023-02-17T04:03:01.517Z,32.49
2023-02-17T04:03:31.603Z,32.53
2023-02-17T04:04:01.742Z,32.55
2023-02-17T04:04:31.728Z,32.55
2023-02-17T04:05:01.833Z,32.58
2023-02-17T04:05:31.916Z,32.58
2023-02-17T04:06:02.003Z,32.56
2023-02-17T04:06:32.084Z,32.59
2023-02-17T04:07:02.180Z,32.58
2023-02-17T04:07:32.250Z,32.61
2023-02-17T04:08:02.349Z,32.65
2023-02-17T04:08:32.423Z,32.61
2023-02-17T04:09:02.509Z,32.60
2023-02-17T04:09:32.618Z,32.65
2023-02-17T04:10:05.198Z,32.64
2023-02-17T04:10:32.788Z,32.55
2023-02-17T04:11:02.842Z,32.58
2023-02-17T04:11:32.924Z,32.61
2023-02-17T04:12:03.014Z,32.56
2023-02-17T04:12:33.093Z,32.57
2023-02-17T04:13:03.169Z,32.49
2023-02-17T04:13:33.245Z,32.52
2023-02-17T04:14:03.341Z,32.48
2023-02-17T04:14:33.423Z,32.45
2023-02-17T04:15:03.519Z,32.42
2023-02-17T04:15:33.716Z,32.43
2023-02-17T04:16:03.825Z,32.36
2023-02-17T04:16:33.713Z,32.43
2023-02-17T04:17:03.796Z,32.43
2023-02-17T04:17:33.878Z,32.38
2023-02-17T04:18:03.967Z,32.43
2023-02-17T04:18:34.045Z,32.38
2023-02-17T04:19:04.157Z,32.38
2023-02-17T04:19:34.232Z,32.36
2023-02-17T04:20:04.317Z,32.43
2023-02-17T04:20:34.399Z,32.41
2023-02-17T04:21:04.493Z,32.38
2023-02-17T04:21:34.571Z,32.39
2023-02-17T04:22:04.649Z,32.37
2023-02-17T04:22:34.732Z,32.43
2023-02-17T04:23:04.820Z,32.36
2023-02-17T04:23:34.906Z,32.39
2023-02-17T04:24:05.002Z,32.32
2023-02-17T04:24:35.068Z,32.32
2023-02-17T04:25:05.194Z,32.28
2023-02-17T04:25:35.253Z,32.29
2023-02-17T04:26:05.715Z,32.23
2023-02-17T04:26:35.366Z,32.25
2023-02-17T04:27:05.449Z,32.25
2023-02-17T04:27:35.540Z,32.19
2023-02-17T04:28:05.624Z,32.22
2023-02-17T04:28:35.706Z,32.24
2023-02-17T04:29:05.788Z,32.22
2023-02-17T04:29:35.876Z,32.16
2023-02-17T04:30:05.995Z,32.13
2023-02-17T04:30:36.101Z,32.15
2023-02-17T04:31:06.182Z,32.15
2023-02-17T04:31:36.163Z,32.12
2023-02-17T04:32:06.128Z,32.12
2023-02-17T04:32:36.201Z,32.12
2023-02-17T04:33:06.297Z,32.06
2023-02-17T04:33:36.372Z,32.10
2023-02-17T04:34:06.457Z,32.10
2023-02-17T04:34:36.539Z,32.04
2023-02-17T04:35:06.627Z,32.08
2023-02-17T04:35:36.708Z,32.09
2023-02-17T04:36:07.150Z,32.09
2023-02-17T04:36:36.833Z,32.01
2023-02-17T04:37:06.936Z,32.03
2023-02-17T04:37:36.934Z,32.06
2023-02-17T04:38:07.017Z,32.09
2023-02-17T04:38:37.091Z,32.07
2023-02-17T04:39:07.205Z,32.15
2023-02-17T04:39:37.172Z,32.14
2023-02-17T04:40:07.262Z,32.21
2023-02-17T04:40:37.373Z,32.19
2023-02-17T04:41:07.428Z,32.23
2023-02-17T04:41:37.522Z,32.19
2023-02-17T04:42:07.610Z,32.21
2023-02-17T04:42:37.688Z,32.27
2023-02-17T04:43:07.765Z,32.29
2023-02-17T04:43:37.850Z,32.30
2023-02-17T04:44:07.935Z,32.28
2023-02-17T04:44:38.020Z,32.28
2023-02-17T04:45:08.071Z,32.37
2023-02-17T04:45:38.098Z,32.37
2023-02-17T04:46:08.773Z,32.37
2023-02-17T04:46:38.257Z,32.48
2023-02-17T04:47:08.300Z,32.46
2023-02-17T04:47:38.346Z,32.49
2023-02-17T04:48:08.376Z,32.44
2023-02-17T04:48:38.417Z,32.53
2023-02-17T04:49:08.456Z,32.50
2023-02-17T04:49:38.503Z,32.52
2023-02-17T04:50:08.537Z,32.50
2023-02-17T04:50:38.585Z,32.46
2023-02-17T04:51:08.630Z,32.50
2023-02-17T04:51:38.674Z,32.54
2023-02-17T04:52:08.705Z,32.61
2023-02-17T04:52:38.744Z,32.54
2023-02-17T04:53:08.773Z,32.64
2023-02-17T04:53:38.814Z,32.61
2023-02-17T04:54:08.859Z,32.68
2023-02-17T04:54:38.893Z,32.63
2023-02-17T04:55:08.961Z,32.64
2023-02-17T04:55:39.044Z,32.63
2023-02-17T04:56:09.156Z,32.64
2023-02-17T04:56:39.216Z,32.71
2023-02-17T04:57:09.324Z,32.65
2023-02-17T04:57:39.386Z,32.69
2023-02-17T04:58:09.473Z,32.74
2023-02-17T04:58:39.557Z,32.71
2023-02-17T04:59:09.688Z,32.69
2023-02-17T04:59:39.654Z,32.71
2023-02-17T05:00:09.734Z,32.72
2023-02-17T05:00:39.823Z,32.67
2023-02-17T05:01:09.943Z,32.66
2023-02-17T05:01:39.924Z,32.66
2023-02-17T05:02:10.002Z,32.71
2023-02-17T05:02:40.090Z,32.69
2023-02-17T05:03:10.174Z,32.72
2023-02-17T05:03:40.252Z,32.69
2023-02-17T05:04:10.341Z,32.75
2023-02-17T05:04:40.432Z,32.72
2023-02-17T05:05:10.522Z,32.79
2023-02-17T05:05:40.608Z,32.76
2023-02-17T05:06:10.678Z,32.79
2023-02-17T05:06:40.758Z,32.75
2023-02-17T05:07:10.836Z,32.75
2023-02-17T05:07:40.931Z,32.72
2023-02-17T05:08:10.998Z,32.69
2023-02-17T05:08:41.080Z,32.73
2023-02-17T05:09:11.167Z,32.77
2023-02-17T05:09:41.255Z,32.66
2023-02-17T05:10:11.337Z,32.65
2023-02-17T05:10:41.430Z,32.68
2023-02-17T05:11:11.538Z,32.68
2023-02-17T05:11:41.754Z,32.95
2023-02-17T05:12:11.713Z,32.92
2023-02-17T05:12:41.801Z,32.84
2023-02-17T05:13:11.912Z,32.71
2023-02-17T05:13:41.985Z,32.65
2023-02-17T05:14:12.069Z,32.57
2023-02-17T05:14:42.153Z,32.54
2023-02-17T05:15:12.234Z,32.54
2023-02-17T05:15:42.331Z,32.48
2023-02-17T05:16:12.629Z,32.48
2023-02-17T05:16:42.475Z,32.32
2023-02-17T05:17:12.558Z,32.26
2023-02-17T05:17:42.647Z,32.25
2023-02-17T05:18:12.760Z,32.19
2023-02-17T05:18:42.818Z,32.39
2023-02-17T05:19:12.908Z,32.86
2023-02-17T05:19:42.987Z,32.84
2023-02-17T05:20:13.079Z,32.84
2023-02-17T05:20:43.144Z,32.86
2023-02-17T05:21:13.229Z,32.89
2023-02-17T05:21:43.314Z,33.01
2023-02-17T05:22:13.402Z,33.07
2023-02-17T05:22:43.495Z,33.14
2023-02-17T05:23:13.569Z,33.15
2023-02-17T05:23:43.673Z,33.30
2023-02-17T05:24:13.757Z,33.40
2023-02-17T05:24:43.843Z,33.45
2023-02-17T05:25:13.918Z,33.59
2023-02-17T05:25:43.997Z,33.58
2023-02-17T05:26:14.106Z,33.66
2023-02-17T05:26:44.100Z,33.68
2023-02-17T05:27:14.168Z,33.77
2023-02-17T05:27:44.240Z,33.87
2023-02-17T05:28:14.326Z,33.93
2023-02-17T05:28:44.407Z,34.05
2023-02-17T05:29:14.491Z,34.01
2023-02-17T05:29:44.578Z,34.06
2023-02-17T05:30:14.748Z,34.18
2023-02-17T05:30:44.749Z,34.20
2023-02-17T05:31:14.963Z,34.23
2023-02-17T05:31:45.026Z,34.27
2023-02-17T05:32:15.034Z,34.20
2023-02-17T05:32:45.107Z,34.31
2023-02-17T05:33:15.202Z,34.35
2023-02-17T05:33:45.281Z,34.29
2023-02-17T05:34:15.383Z,34.44
2023-02-17T05:34:45.471Z,34.49
2023-02-17T05:35:15.550Z,34.51
2023-02-17T05:35:45.636Z,34.46
2023-02-17T05:36:15.728Z,34.48
2023-02-17T05:36:45.811Z,34.46
2023-02-17T05:37:15.897Z,34.52
2023-02-17T05:37:45.984Z,34.55
2023-02-17T05:38:16.071Z,34.60
2023-02-17T05:38:46.166Z,34.53
2023-02-17T05:39:16.250Z,34.51
2023-02-17T05:39:46.333Z,34.57
2023-02-17T05:40:16.419Z,34.55
2023-02-17T05:40:46.503Z,34.57
2023-02-17T05:41:16.589Z,34.54
2023-02-17T05:41:46.694Z,34.56
2023-02-17T05:42:16.757Z,34.58
2023-02-17T05:42:46.861Z,34.51
2023-02-17T05:43:16.925Z,34.56
2023-02-17T05:43:47.004Z,34.47
2023-02-17T05:44:17.099Z,34.48
2023-02-17T05:44:47.184Z,34.45
2023-02-17T05:45:17.219Z,34.44
2023-02-17T05:45:47.258Z,34.37
2023-02-17T05:46:17.348Z,34.41
2023-02-17T05:46:47.380Z,34.32
2023-02-17T05:47:17.428Z,34.32
2023-02-17T05:47:47.458Z,34.34
2023-02-17T05:48:17.497Z,34.23
2023-02-17T05:48:47.540Z,34.31
2023-02-17T05:49:17.590Z,34.24
2023-02-17T05:49:47.624Z,34.24
2023-02-17T05:50:17.689Z,34.34
2023-02-17T05:50:47.698Z,34.40
2023-02-17T05:51:17.742Z,34.51
2023-02-17T05:51:47.796Z,34.51
2023-02-17T05:52:17.831Z,34.57
2023-02-17T05:52:47.892Z,34.50
2023-02-17T05:53:17.924Z,34.48
2023-02-17T05:53:47.963Z,34.44
2023-02-17T05:54:18.024Z,34.43
2023-02-17T05:54:48.072Z,34.41
2023-02-17T05:55:18.145Z,34.42
2023-02-17T05:55:48.943Z,34.38
2023-02-17T05:56:18.299Z,34.43
2023-02-17T05:56:48.414Z,34.40
2023-02-17T05:57:18.471Z,34.30
2023-02-17T05:57:48.549Z,34.30
2023-02-17T05:58:18.627Z,34.26
2023-02-17T05:58:48.713Z,34.27
2023-02-17T05:59:18.799Z,34.29
2023-02-17T05:59:48.884Z,34.32
2023-02-17T06:00:18.952Z,34.24
2023-02-17T06:00:49.049Z,34.21
2023-02-17T06:01:19.132Z,34.28
2023-02-17T06:01:49.217Z,34.23
2023-02-17T06:02:19.304Z,34.27
2023-02-17T06:02:49.439Z,34.19
2023-02-17T06:03:19.481Z,34.23
2023-02-17T06:03:49.458Z,34.25
2023-02-17T06:04:19.543Z,34.24
2023-02-17T06:04:49.739Z,34.22
2023-02-17T06:05:19.617Z,34.15
2023-02-17T06:05:49.716Z,34.16
2023-02-17T06:06:19.719Z,34.14
2023-02-17T06:06:49.789Z,34.16
2023-02-17T06:07:19.874Z,34.16
2023-02-17T06:07:49.958Z,34.12
2023-02-17T06:08:20.052Z,34.12
2023-02-17T06:08:50.142Z,34.11
2023-02-17T06:09:20.229Z,34.14
2023-02-17T06:09:50.308Z,34.14
2023-02-17T06:10:20.401Z,34.17
2023-02-17T06:10:50.495Z,34.14
2023-02-17T06:11:20.568Z,34.09
2023-02-17T06:11:50.678Z,34.10
2023-02-17T06:12:20.739Z,34.14
2023-02-17T06:12:50.833Z,34.13
2023-02-17T06:13:20.929Z,34.06
2023-02-17T06:13:51.035Z,34.08
2023-02-17T06:14:21.017Z,34.09
2023-02-17T06:14:51.112Z,34.10
2023-02-17T06:15:21.092Z,34.05
2023-02-17T06:15:51.205Z,34.08
2023-02-17T06:16:21.348Z,34.03
2023-02-17T06:16:51.320Z,34.11
2023-02-17T06:17:21.401Z,34.10
2023-02-17T06:17:51.489Z,33.97
2023-02-17T06:18:21.564Z,33.91
2023-02-17T06:18:51.650Z,33.92
2023-02-17T06:19:21.741Z,33.93
2023-02-17T06:19:51.825Z,34.10
2023-02-17T06:20:21.902Z,34.23
2023-02-17T06:20:51.993Z,34.22
2023-02-17T06:21:22.120Z,34.20
2023-02-17T06:21:52.181Z,34.34
2023-02-17T06:22:22.270Z,34.26
2023-02-17T06:22:52.356Z,34.21
2023-02-17T06:23:22.415Z,34.19
2023-02-17T06:23:52.451Z,34.23
2023-02-17T06:24:22.515Z,34.24
2023-02-17T06:24:52.537Z,34.26
2023-02-17T06:25:22.607Z,34.30
2023-02-17T06:25:52.689Z,34.25
2023-02-17T06:26:22.811Z,34.22
2023-02-17T06:26:52.801Z,34.24
2023-02-17T06:27:22.884Z,34.22